Terminal Aerodrome Forecast
Issued by NWS Lake Charles, LA

Home | Current Version | Previous Version | Text Only | Print | Product List | Glossary On
Versions: 1 2 3 4 5 6 7 8 9 10 11 12 13 14 15 16 17 18 19 20
000
FTUS44 KLCH 211741
TAFBPT
TAF
KBPT 211741Z 2118/2218 16018G27KT P6SM VCSH OVC015
     FM220100 15008KT P6SM VCSH BKN015
     FM220300 14007KT 4SM BR BKN008=

USA.gov is the U.S. government's official web portal to all federal, state and local government web resources and services.